createdAt,value
2018-07-15T00:00:02.616Z,51.23
2018-07-15T00:02:31.873Z,51.37
2018-07-15T00:05:01.012Z,50.83
2018-07-15T00:07:29.959Z,51.53
2018-07-15T00:09:58.842Z,51.72
2018-07-15T00:12:27.966Z,51.14
2018-07-15T00:14:57.006Z,51.04
2018-07-15T00:17:26.098Z,51.37
2018-07-15T00:19:55.193Z,51.26
2018-07-15T00:22:24.341Z,50.86
2018-07-15T00:24:53.229Z,51.15
2018-07-15T00:27:22.422Z,50.99
2018-07-15T00:29:51.758Z,51.98
2018-07-15T00:32:20.994Z,51.91
2018-07-15T00:34:50.219Z,51.51
2018-07-15T00:37:19.354Z,51.54
2018-07-15T00:39:48.550Z,51.77
2018-07-15T00:42:17.712Z,51.46
2018-07-15T00:44:46.407Z,51.50
2018-07-15T00:47:15.550Z,51.90
2018-07-15T00:49:44.686Z,51.24
2018-07-15T00:52:13.498Z,51.74
2018-07-15T00:54:42.510Z,51.69
2018-07-15T00:57:11.363Z,51.90
2018-07-15T00:59:40.490Z,51.01
2018-07-15T01:02:09.848Z,51.56
2018-07-15T01:04:38.889Z,52.33
2018-07-15T01:07:08.230Z,51.46
2018-07-15T01:09:37.530Z,52.62
2018-07-15T01:12:06.635Z,52.31
2018-07-15T01:14:35.438Z,53.02
2018-07-15T01:17:04.502Z,52.77
2018-07-15T01:19:33.665Z,52.34
2018-07-15T01:22:02.850Z,52.25
2018-07-15T01:24:32.033Z,52.67
2018-07-15T01:27:01.043Z,52.67
2018-07-15T01:29:30.155Z,52.86
2018-07-15T01:31:59.280Z,52.47
2018-07-15T01:34:28.376Z,51.89
2018-07-15T01:36:58.402Z,52.56
2018-07-15T01:39:27.390Z,52.46
2018-07-15T01:41:56.615Z,51.69
2018-07-15T01:44:25.750Z,51.84
2018-07-15T01:46:54.563Z,52.37
2018-07-15T01:49:23.398Z,51.38
2018-07-15T01:51:52.245Z,52.28
2018-07-15T01:54:21.362Z,51.92
2018-07-15T01:56:50.646Z,52.32
2018-07-15T01:59:19.790Z,52.20
2018-07-15T02:01:49.022Z,51.59
2018-07-15T02:04:17.948Z,52.34
2018-07-15T02:06:46.696Z,51.95
2018-07-15T02:09:15.914Z,52.08
2018-07-15T02:11:44.966Z,52.12
2018-07-15T02:14:14.063Z,53.69
2018-07-15T02:16:43.253Z,53.88
2018-07-15T02:19:12.399Z,52.84
2018-07-15T02:21:41.356Z,52.44
2018-07-15T02:24:10.308Z,52.45
2018-07-15T02:26:39.396Z,52.61
2018-07-15T02:29:08.702Z,52.25
2018-07-15T02:31:37.807Z,51.44
2018-07-15T02:34:08.678Z,51.54
2018-07-15T02:36:37.682Z,50.94
2018-07-15T02:39:08.647Z,51.42
2018-07-15T02:41:37.746Z,51.52
2018-07-15T02:44:07.492Z,51.44
2018-07-15T02:46:36.522Z,51.29
2018-07-15T02:49:05.580Z,50.72
2018-07-15T02:51:34.945Z,50.76
2018-07-15T02:54:04.183Z,50.70
2018-07-15T02:56:33.108Z,51.26
2018-07-15T02:59:02.231Z,50.59
2018-07-15T03:01:31.382Z,51.22
2018-07-15T03:04:00.194Z,50.59
2018-07-15T03:06:29.171Z,51.65
2018-07-15T03:08:58.459Z,51.46
2018-07-15T03:11:27.674Z,51.71
2018-07-15T03:13:56.874Z,52.32
2018-07-15T03:16:25.998Z,52.47
2018-07-15T03:18:55.243Z,52.80
2018-07-15T03:21:24.498Z,54.03
2018-07-15T03:23:53.634Z,53.72
2018-07-15T03:26:22.887Z,55.01
2018-07-15T03:28:51.826Z,54.80
2018-07-15T03:31:20.818Z,55.14
2018-07-15T03:33:50.114Z,56.25
2018-07-15T03:36:19.156Z,56.70
2018-07-15T03:38:48.300Z,55.33
2018-07-15T03:41:17.489Z,54.90
2018-07-15T03:43:46.767Z,53.66
2018-07-15T03:46:16.111Z,53.51
2018-07-15T03:48:45.151Z,53.71
2018-07-15T03:51:14.454Z,53.19
2018-07-15T03:53:43.575Z,52.29
2018-07-15T03:56:12.414Z,52.21
2018-07-15T03:58:41.623Z,52.60
2018-07-15T04:01:10.667Z,52.65
2018-07-15T04:03:39.838Z,53.63
2018-07-15T04:06:08.751Z,54.32
2018-07-15T04:08:37.804Z,55.28
2018-07-15T04:11:07.019Z,55.34
2018-07-15T04:13:36.066Z,55.01
2018-07-15T04:16:05.335Z,55.70
2018-07-15T04:18:34.302Z,56.21
2018-07-15T04:21:03.422Z,54.69
2018-07-15T04:23:32.562Z,52.80
2018-07-15T04:26:01.671Z,52.63
2018-07-15T04:28:30.949Z,52.06
2018-07-15T04:30:59.894Z,51.98
2018-07-15T04:33:29.042Z,51.90
2018-07-15T04:35:58.179Z,52.95
2018-07-15T04:38:27.438Z,52.22
2018-07-15T04:40:56.484Z,52.50
2018-07-15T04:43:25.616Z,51.98
2018-07-15T04:45:54.502Z,51.60
2018-07-15T04:48:23.618Z,51.19
2018-07-15T04:50:52.590Z,50.61
2018-07-15T04:53:21.638Z,50.97
2018-07-15T04:55:50.543Z,51.55
2018-07-15T04:58:19.702Z,51.57
2018-07-15T05:00:48.831Z,52.49
2018-07-15T05:03:17.974Z,53.34
2018-07-15T05:05:47.180Z,52.67
2018-07-15T05:08:16.158Z,54.07
2018-07-15T05:10:45.522Z,51.71
2018-07-15T05:13:14.647Z,52.46
2018-07-15T05:15:43.722Z,51.72
2018-07-15T05:18:13.066Z,51.80
2018-07-15T05:20:42.200Z,51.36
2018-07-15T05:23:11.018Z,51.62
2018-07-15T05:25:39.996Z,52.34
2018-07-15T05:28:08.950Z,53.62
2018-07-15T05:30:38.069Z,54.10
2018-07-15T05:33:07.340Z,53.59
2018-07-15T05:35:36.503Z,52.98
2018-07-15T05:38:05.649Z,52.53
2018-07-15T05:40:34.481Z,53.13
2018-07-15T05:43:03.520Z,53.52
2018-07-15T05:45:32.757Z,50.83
2018-07-15T05:48:01.810Z,51.21
2018-07-15T05:50:30.898Z,50.62
2018-07-15T05:52:59.685Z,50.38
2018-07-15T05:55:28.841Z,50.76
2018-07-15T05:57:57.966Z,51.55
2018-07-15T06:00:26.974Z,50.55
2018-07-15T06:02:56.331Z,50.40
2018-07-15T06:05:25.681Z,49.48
2018-07-15T06:07:54.858Z,50.77
2018-07-15T06:10:23.722Z,49.97
2018-07-15T06:12:52.802Z,50.76
2018-07-15T06:15:21.822Z,50.76
2018-07-15T06:17:50.997Z,49.53
2018-07-15T06:20:19.979Z,50.75
2018-07-15T06:22:49.343Z,50.16
2018-07-15T06:25:18.507Z,51.11
2018-07-15T06:27:47.627Z,51.48
2018-07-15T06:30:16.767Z,48.67
2018-07-15T06:32:45.623Z,47.94
2018-07-15T06:35:14.519Z,46.13
2018-07-15T06:37:43.628Z,46.94
2018-07-15T06:40:12.830Z,46.69
2018-07-15T06:42:42.030Z,46.19
2018-07-15T06:45:11.119Z,45.29
2018-07-15T06:47:40.283Z,44.96
2018-07-15T06:50:09.292Z,45.98
2018-07-15T06:52:38.360Z,46.18
2018-07-15T06:55:07.489Z,44.69
2018-07-15T06:57:36.397Z,45.21
2018-07-15T07:00:05.535Z,45.45
2018-07-15T07:02:34.319Z,44.17
2018-07-15T07:05:03.441Z,44.72
2018-07-15T07:07:32.431Z,44.14
2018-07-15T07:10:01.614Z,46.00
2018-07-15T07:12:30.752Z,45.75
2018-07-15T07:14:59.902Z,42.47
2018-07-15T07:17:28.711Z,41.21
2018-07-15T07:19:57.730Z,42.82
2018-07-15T07:22:27.043Z,43.19
2018-07-15T07:24:56.030Z,41.84
2018-07-15T07:27:25.394Z,41.39
2018-07-15T07:29:54.658Z,40.62
2018-07-15T07:32:23.675Z,40.56
2018-07-15T07:34:52.702Z,40.38
2018-07-15T07:37:21.950Z,39.33
2018-07-15T07:39:50.988Z,40.83
2018-07-15T07:42:19.872Z,41.77
2018-07-15T07:44:49.036Z,41.29
2018-07-15T07:47:18.163Z,40.58
2018-07-15T07:49:47.281Z,39.06
2018-07-15T07:52:16.363Z,39.35
2018-07-15T07:54:45.647Z,38.60
2018-07-15T07:57:14.451Z,38.72
2018-07-15T07:59:43.367Z,37.74
2018-07-15T08:02:12.151Z,38.79
2018-07-15T08:04:41.265Z,39.76
2018-07-15T08:07:10.528Z,38.75
2018-07-15T08:09:39.367Z,37.50
2018-07-15T08:12:08.619Z,38.45
2018-07-15T08:14:37.958Z,38.01
2018-07-15T08:17:07.030Z,38.01
2018-07-15T08:19:36.265Z,38.95
2018-07-15T08:22:05.327Z,39.12
2018-07-15T08:24:34.195Z,39.80
2018-07-15T08:27:03.407Z,38.53
2018-07-15T08:29:32.436Z,39.11
2018-07-15T08:32:01.570Z,39.63
2018-07-15T08:34:30.499Z,38.46
2018-07-15T08:36:59.435Z,37.06
2018-07-15T08:39:28.691Z,36.56
2018-07-15T08:41:57.748Z,39.35
2018-07-15T08:44:27.073Z,38.67
2018-07-15T08:46:56.304Z,36.58
2018-07-15T08:49:25.470Z,36.93
2018-07-15T08:51:54.558Z,37.13
2018-07-15T08:54:23.599Z,35.90
2018-07-15T08:56:52.724Z,37.00
2018-07-15T08:59:21.899Z,36.24
2018-07-15T09:01:50.795Z,36.71
2018-07-15T09:04:19.706Z,37.57
2018-07-15T09:06:48.802Z,37.58
2018-07-15T09:09:17.914Z,36.45
2018-07-15T09:11:46.890Z,35.33
2018-07-15T09:14:16.054Z,36.15
2018-07-15T09:16:45.214Z,36.57
2018-07-15T09:19:14.257Z,35.67
2018-07-15T09:21:43.339Z,37.05
2018-07-15T09:24:12.290Z,36.63
2018-07-15T09:26:41.286Z,35.26
2018-07-15T09:29:10.360Z,36.57
2018-07-15T09:31:39.355Z,35.88
2018-07-15T09:34:08.262Z,36.23
2018-07-15T09:36:37.388Z,34.27
2018-07-15T09:39:07.387Z,34.54
2018-07-15T09:41:36.199Z,33.98
2018-07-15T09:44:05.340Z,32.27
2018-07-15T09:46:34.487Z,33.61
2018-07-15T09:49:03.387Z,32.54
2018-07-15T09:51:32.682Z,32.15
2018-07-15T09:54:01.978Z,30.68
2018-07-15T09:56:31.277Z,29.99
2018-07-15T09:59:01.029Z,29.16
2018-07-15T10:01:29.879Z,27.35
2018-07-15T10:04:00.194Z,24.72
2018-07-15T10:06:29.274Z,23.85
2018-07-15T10:08:58.064Z,23.20
2018-07-15T10:11:27.169Z,21.04
2018-07-15T10:13:56.459Z,20.93
2018-07-15T10:16:25.791Z,22.14
2018-07-15T10:18:54.805Z,22.75
2018-07-15T10:21:23.962Z,21.94
2018-07-15T10:23:53.182Z,21.18
2018-07-15T10:26:22.283Z,21.54
2018-07-15T10:28:51.577Z,20.79
2018-07-15T10:31:20.736Z,20.33
2018-07-15T10:33:49.945Z,19.75
2018-07-15T10:36:18.746Z,18.66
2018-07-15T10:38:47.651Z,18.81
2018-07-15T10:41:16.424Z,19.20
2018-07-15T10:43:45.647Z,20.78
2018-07-15T10:46:14.714Z,22.37
2018-07-15T10:48:43.885Z,22.02
2018-07-15T10:51:12.764Z,21.62
2018-07-15T10:53:41.735Z,21.75
2018-07-15T10:56:10.810Z,20.72
2018-07-15T10:58:39.931Z,20.29
2018-07-15T11:01:08.903Z,19.85
2018-07-15T11:03:38.191Z,19.73
2018-07-15T11:06:07.268Z,19.02
2018-07-15T11:08:36.712Z,19.30
2018-07-15T11:11:05.774Z,20.01
2018-07-15T11:13:34.984Z,20.12
2018-07-15T11:16:03.890Z,20.20
2018-07-15T11:18:33.010Z,20.10
2018-07-15T11:21:01.918Z,19.58
2018-07-15T11:23:31.194Z,19.16
2018-07-15T11:26:00.001Z,19.79
2018-07-15T11:28:28.812Z,21.95
2018-07-15T11:30:58.019Z,21.23
2018-07-15T11:33:27.226Z,22.67
2018-07-15T11:35:56.311Z,23.29
2018-07-15T11:38:25.458Z,22.88
2018-07-15T11:40:54.260Z,22.03
2018-07-15T11:43:23.459Z,22.11
2018-07-15T11:45:52.690Z,20.72
2018-07-15T11:48:21.881Z,19.77
2018-07-15T11:50:50.942Z,19.17
2018-07-15T11:53:20.130Z,18.75
2018-07-15T11:55:49.405Z,18.02
2018-07-15T11:58:18.287Z,18.47
2018-07-15T12:00:47.232Z,19.41
2018-07-15T12:03:16.469Z,18.36
2018-07-15T12:05:45.351Z,17.59
2018-07-15T12:08:14.641Z,18.81
2018-07-15T12:10:44.006Z,18.08
2018-07-15T12:13:14.070Z,18.02
2018-07-15T12:15:43.435Z,17.60
2018-07-15T12:18:12.402Z,17.21
2018-07-15T12:20:41.638Z,16.57
2018-07-15T12:23:10.796Z,16.38
2018-07-15T12:25:40.034Z,16.38
2018-07-15T12:28:09.211Z,16.02
2018-07-15T12:30:38.139Z,16.02
2018-07-15T12:33:07.472Z,15.35
2018-07-15T12:35:36.623Z,15.91
2018-07-15T12:38:05.448Z,16.22
2018-07-15T12:40:34.644Z,16.42
2018-07-15T12:43:03.760Z,16.01
2018-07-15T12:45:33.083Z,16.22
2018-07-15T12:48:02.236Z,16.00
2018-07-15T12:50:31.047Z,15.65
2018-07-15T12:53:00.028Z,15.88
2018-07-15T12:55:28.967Z,15.79
2018-07-15T12:57:58.242Z,16.01
2018-07-15T13:00:27.168Z,15.76
2018-07-15T13:02:55.913Z,16.10
2018-07-15T13:05:25.178Z,17.42
2018-07-15T13:07:54.297Z,17.50
2018-07-15T13:10:23.219Z,18.72
2018-07-15T13:12:52.366Z,18.49
2018-07-15T13:15:21.322Z,17.47
2018-07-15T13:17:50.559Z,17.24
2018-07-15T13:20:19.886Z,17.50
2018-07-15T13:22:49.161Z,18.61
2018-07-15T13:25:18.388Z,19.37
2018-07-15T13:27:47.555Z,19.54
2018-07-15T13:30:16.898Z,19.64
2018-07-15T13:32:46.154Z,19.23
2018-07-15T13:35:15.447Z,18.80
2018-07-15T13:37:44.531Z,18.76
2018-07-15T13:40:13.534Z,17.91
2018-07-15T13:42:42.830Z,17.73
2018-07-15T13:45:12.721Z,17.79
2018-07-15T13:47:42.324Z,17.85
2018-07-15T13:50:11.590Z,17.63
2018-07-15T13:52:40.817Z,17.35
2018-07-15T13:55:09.974Z,17.89
2018-07-15T13:57:39.230Z,16.92
2018-07-15T14:00:08.805Z,17.80
2018-07-15T14:02:38.084Z,17.82
2018-07-15T14:05:07.643Z,17.25
2018-07-15T14:07:37.924Z,17.53
2018-07-15T14:10:06.783Z,18.71
2018-07-15T14:12:37.330Z,18.82
2018-07-15T14:15:10.880Z,20.32
2018-07-15T14:17:40.166Z,20.94
2018-07-15T14:20:09.309Z,21.75
2018-07-15T14:22:38.216Z,22.08
2018-07-15T14:25:07.344Z,21.70
2018-07-15T14:27:36.301Z,22.22
2018-07-15T14:30:05.632Z,23.47
2018-07-15T14:32:34.942Z,23.71
2018-07-15T14:35:04.114Z,23.77
2018-07-15T14:37:32.840Z,24.22
2018-07-15T14:40:01.638Z,24.39
2018-07-15T14:42:30.858Z,23.25
2018-07-15T14:44:59.754Z,23.63
2018-07-15T14:47:29.085Z,24.13
2018-07-15T14:49:58.281Z,25.60
2018-07-15T14:52:27.662Z,25.03
2018-07-15T14:54:56.472Z,25.27
2018-07-15T14:57:25.674Z,25.64
2018-07-15T14:59:54.903Z,26.20
2018-07-15T15:02:24.168Z,26.10
2018-07-15T15:04:53.346Z,26.79
2018-07-15T15:07:22.353Z,25.61
2018-07-15T15:09:51.103Z,24.94
2018-07-15T15:12:19.986Z,26.57
2018-07-15T15:14:49.156Z,26.61
2018-07-15T15:17:18.479Z,27.70
2018-07-15T15:19:47.720Z,27.08
2018-07-15T15:22:16.854Z,28.34
2018-07-15T15:24:46.104Z,28.46
2018-07-15T15:27:15.455Z,27.58
2018-07-15T15:29:44.345Z,28.33
2018-07-15T15:32:13.430Z,29.09
2018-07-15T15:34:42.613Z,28.81
2018-07-15T15:37:11.663Z,30.25
2018-07-15T15:39:40.897Z,28.94
2018-07-15T15:42:09.941Z,29.27
2018-07-15T15:44:39.027Z,29.84
2018-07-15T15:47:08.176Z,28.87
2018-07-15T15:49:37.383Z,30.26
2018-07-15T15:52:06.598Z,29.61
2018-07-15T15:54:35.882Z,28.72
2018-07-15T15:57:05.085Z,28.18
2018-07-15T15:59:34.281Z,29.55
2018-07-15T16:02:03.561Z,28.77
2018-07-15T16:04:32.467Z,28.53
2018-07-15T16:07:01.587Z,28.58
2018-07-15T16:09:30.748Z,30.73
2018-07-15T16:11:59.891Z,30.80
2018-07-15T16:14:29.147Z,30.19
2018-07-15T16:16:58.139Z,32.10
2018-07-15T16:19:27.223Z,30.78
2018-07-15T16:21:56.465Z,31.04
2018-07-15T16:24:25.366Z,30.82
2018-07-15T16:26:54.654Z,31.67
2018-07-15T16:29:23.918Z,30.79
2018-07-15T16:31:53.088Z,31.32
2018-07-15T16:34:22.271Z,31.16
2018-07-15T16:36:51.542Z,31.18
2018-07-15T16:39:20.369Z,32.35
2018-07-15T16:41:49.483Z,32.61
2018-07-15T16:44:18.732Z,33.31
2018-07-15T16:46:47.915Z,34.28
2018-07-15T16:49:17.009Z,34.92
2018-07-15T16:51:46.135Z,34.58
2018-07-15T16:54:15.403Z,35.25
2018-07-15T16:56:44.598Z,34.24
2018-07-15T16:59:13.511Z,34.35
2018-07-15T17:01:42.595Z,35.60
2018-07-15T17:04:11.594Z,35.69
2018-07-15T17:06:40.667Z,36.97
2018-07-15T17:09:09.590Z,37.02
2018-07-15T17:11:38.743Z,37.53
2018-07-15T17:14:07.745Z,37.00
2018-07-15T17:16:36.637Z,37.60
2018-07-15T17:19:05.722Z,37.51
2018-07-15T17:21:34.830Z,38.58
2018-07-15T17:24:03.718Z,38.86
2018-07-15T17:26:32.798Z,39.18
2018-07-15T17:29:02.089Z,38.61
2018-07-15T17:31:31.236Z,38.59
2018-07-15T17:34:00.235Z,38.39
2018-07-15T17:36:29.418Z,39.49
2018-07-15T17:38:58.550Z,39.45
2018-07-15T17:41:27.751Z,39.92
2018-07-15T17:43:56.644Z,39.81
2018-07-15T17:46:25.899Z,39.79
2018-07-15T17:48:54.868Z,40.04
2018-07-15T17:51:24.113Z,39.60
2018-07-15T17:53:53.195Z,40.18
2018-07-15T17:56:22.274Z,39.33
2018-07-15T17:58:51.404Z,40.37
2018-07-15T18:01:20.718Z,40.73
2018-07-15T18:03:50.037Z,39.46
2018-07-15T18:06:19.228Z,39.69
2018-07-15T18:08:48.325Z,39.97
2018-07-15T18:11:17.360Z,39.76
2018-07-15T18:13:46.346Z,40.83
2018-07-15T18:16:15.525Z,40.36
2018-07-15T18:18:44.482Z,40.28
2018-07-15T18:21:13.254Z,40.05
2018-07-15T18:23:42.076Z,40.73
2018-07-15T18:26:11.372Z,40.46
2018-07-15T18:28:40.061Z,40.99
2018-07-15T18:31:09.169Z,40.93
2018-07-15T18:33:38.177Z,40.90
2018-07-15T18:36:07.138Z,40.47
2018-07-15T18:38:36.336Z,40.45
2018-07-15T18:41:05.293Z,40.58
2018-07-15T18:43:34.575Z,40.74
2018-07-15T18:46:03.652Z,40.12
2018-07-15T18:48:32.634Z,40.81
2018-07-15T18:51:01.894Z,40.47
2018-07-15T18:53:31.213Z,40.94
2018-07-15T18:56:00.446Z,41.48
2018-07-15T18:58:29.386Z,40.39
2018-07-15T19:00:58.650Z,40.19
2018-07-15T19:03:27.770Z,40.68
2018-07-15T19:05:56.974Z,41.65
2018-07-15T19:08:26.078Z,41.01
2018-07-15T19:10:55.128Z,41.41
2018-07-15T19:13:24.298Z,41.13
2018-07-15T19:15:53.407Z,41.57
2018-07-15T19:18:22.624Z,42.15
2018-07-15T19:20:51.864Z,41.22
2018-07-15T19:23:20.880Z,41.40
2018-07-15T19:25:50.222Z,42.09
2018-07-15T19:28:19.359Z,42.11
2018-07-15T19:30:48.467Z,42.65
2018-07-15T19:33:17.542Z,42.70
2018-07-15T19:35:46.391Z,42.31
2018-07-15T19:38:15.452Z,41.59
2018-07-15T19:40:44.693Z,41.31
2018-07-15T19:43:13.858Z,41.85
2018-07-15T19:45:43.208Z,42.68
2018-07-15T19:48:12.440Z,42.68
2018-07-15T19:50:41.445Z,43.83
2018-07-15T19:53:10.372Z,42.84
2018-07-15T19:55:39.398Z,42.63
2018-07-15T19:58:08.674Z,43.99
2018-07-15T20:00:37.866Z,44.80
2018-07-15T20:03:07.015Z,45.64
2018-07-15T20:05:36.258Z,43.87
2018-07-15T20:08:05.512Z,45.19
2018-07-15T20:10:34.458Z,44.96
2018-07-15T20:13:03.534Z,47.46
2018-07-15T20:15:32.643Z,46.96
2018-07-15T20:18:01.790Z,47.74
2018-07-15T20:20:30.971Z,47.30
2018-07-15T20:23:00.343Z,46.47
2018-07-15T20:25:29.446Z,47.09
2018-07-15T20:27:58.438Z,47.91
2018-07-15T20:30:27.728Z,46.99
2018-07-15T20:32:56.754Z,47.56
2018-07-15T20:35:25.890Z,49.81
2018-07-15T20:37:55.030Z,49.84
2018-07-15T20:40:24.386Z,49.04
2018-07-15T20:42:53.124Z,46.66
2018-07-15T20:45:22.317Z,49.41
2018-07-15T20:47:51.374Z,50.38
2018-07-15T20:50:20.235Z,48.99
2018-07-15T20:52:49.359Z,47.11
2018-07-15T20:55:18.452Z,46.39
2018-07-15T20:57:47.469Z,46.06
2018-07-15T21:00:16.727Z,46.20
2018-07-15T21:02:45.873Z,46.88
2018-07-15T21:05:15.171Z,45.40
2018-07-15T21:07:44.192Z,45.78
2018-07-15T21:10:13.499Z,45.59
2018-07-15T21:12:42.727Z,45.55
2018-07-15T21:15:11.576Z,45.21
2018-07-15T21:17:40.654Z,45.33
2018-07-15T21:20:09.398Z,45.13
2018-07-15T21:22:38.387Z,44.48
2018-07-15T21:25:07.500Z,44.73
2018-07-15T21:27:36.716Z,45.04
2018-07-15T21:30:05.676Z,44.71
2018-07-15T21:32:35.059Z,44.98
2018-07-15T21:35:04.171Z,45.79
2018-07-15T21:37:33.096Z,45.66
2018-07-15T21:40:02.204Z,44.88
2018-07-15T21:42:31.127Z,45.38
2018-07-15T21:45:00.311Z,44.57
2018-07-15T21:47:29.522Z,44.85
2018-07-15T21:49:58.856Z,45.63
2018-07-15T21:52:27.766Z,45.21
2018-07-15T21:54:56.828Z,44.66
2018-07-15T21:57:25.545Z,44.52
2018-07-15T21:59:54.603Z,44.48
2018-07-15T22:02:23.644Z,44.37
2018-07-15T22:04:53.091Z,44.11
2018-07-15T22:07:32.829Z,44.15
2018-07-15T22:10:13.903Z,45.23
2018-07-15T22:12:43.152Z,44.54
2018-07-15T22:15:12.386Z,44.85
2018-07-15T22:17:41.346Z,44.71
2018-07-15T22:20:10.427Z,46.04
2018-07-15T22:22:39.674Z,46.09
2018-07-15T22:25:08.831Z,45.14
2018-07-15T22:27:38.181Z,46.36
2018-07-15T22:30:06.979Z,46.37
2018-07-15T22:32:36.093Z,46.02
2018-07-15T22:35:05.342Z,49.45
2018-07-15T22:37:34.505Z,49.35
2018-07-15T22:40:03.846Z,49.54
2018-07-15T22:42:32.885Z,47.50
2018-07-15T22:45:02.039Z,49.27
2018-07-15T22:47:30.970Z,50.25
2018-07-15T22:49:59.817Z,50.04
2018-07-15T22:52:29.202Z,51.01
2018-07-15T22:54:58.359Z,50.57
2018-07-15T22:57:27.143Z,50.34
2018-07-15T22:59:56.351Z,49.02
2018-07-15T23:02:25.425Z,50.16
2018-07-15T23:06:02.934Z,48.36
2018-07-15T23:08:33.043Z,48.27
2018-07-15T23:11:02.073Z,48.20
2018-07-15T23:13:31.203Z,48.01
2018-07-15T23:16:00.306Z,47.38
2018-07-15T23:18:29.226Z,47.14
2018-07-15T23:20:58.479Z,47.20
2018-07-15T23:23:27.351Z,47.62
2018-07-15T23:25:56.434Z,46.59
2018-07-15T23:28:25.686Z,46.91
2018-07-15T23:30:54.692Z,46.81
2018-07-15T23:33:23.640Z,47.49
2018-07-15T23:35:52.499Z,46.96
2018-07-15T23:38:21.515Z,47.52
2018-07-15T23:40:50.502Z,48.25
2018-07-15T23:43:19.803Z,47.99
2018-07-15T23:45:48.824Z,47.18
2018-07-15T23:48:17.859Z,47.35
2018-07-15T23:50:47.084Z,47.12
2018-07-15T23:53:15.956Z,47.58
2018-07-15T23:55:45.081Z,47.91
2018-07-15T23:58:13.902Z,47.27
